createdAt,value
2022-10-05T00:00:09.883Z,69.06
2022-10-05T00:02:56.600Z,69.10
2022-10-05T00:05:44.373Z,69.71
2022-10-05T00:08:32.206Z,68.98
2022-10-05T00:11:18.930Z,69.05
2022-10-05T00:14:15.375Z,68.94
2022-10-05T00:17:02.156Z,69.43
2022-10-05T00:19:52.242Z,69.66
2022-10-05T00:22:38.894Z,69.77
2022-10-05T00:25:25.544Z,69.87
2022-10-05T00:28:22.007Z,69.96
2022-10-05T00:31:16.906Z,70.05
2022-10-05T00:34:03.575Z,69.54
2022-10-05T00:36:50.323Z,69.72
2022-10-05T00:39:37.666Z,69.49
2022-10-05T00:42:36.741Z,69.35
2022-10-05T00:45:27.352Z,69.38
2022-10-05T00:48:20.122Z,69.86
2022-10-05T00:51:18.725Z,69.72
2022-10-05T00:54:18.474Z,69.32
2022-10-05T00:57:08.230Z,69.39
2022-10-05T01:00:05.918Z,69.80
2022-10-05T01:03:08.038Z,69.69
2022-10-05T01:06:04.978Z,69.22
2022-10-05T01:08:54.694Z,69.28
2022-10-05T01:11:41.312Z,69.15
2022-10-05T01:14:30.760Z,69.55
2022-10-05T01:17:31.090Z,69.45
2022-10-05T01:20:26.951Z,69.48
2022-10-05T01:23:22.850Z,69.17
2022-10-05T01:26:16.843Z,69.49
2022-10-05T01:29:09.547Z,69.21
2022-10-05T01:31:59.323Z,69.50
2022-10-05T01:35:01.350Z,69.86
2022-10-05T01:37:54.808Z,69.36
2022-10-05T01:40:44.487Z,69.73
2022-10-05T01:43:46.305Z,69.65
2022-10-05T01:46:37.978Z,69.44
2022-10-05T01:49:43.592Z,69.20
2022-10-05T01:52:33.317Z,69.40
2022-10-05T01:55:23.043Z,69.53
2022-10-05T01:58:15.884Z,69.60
2022-10-05T02:01:16.280Z,69.59
2022-10-05T02:04:04.427Z,69.26
2022-10-05T02:06:51.085Z,69.53
2022-10-05T02:09:39.890Z,69.52
2022-10-05T02:12:27.563Z,69.47
2022-10-05T02:15:15.646Z,69.33
2022-10-05T02:18:05.531Z,69.59
2022-10-05T02:20:52.197Z,69.19
2022-10-05T02:23:39.265Z,69.20
2022-10-05T02:26:25.912Z,69.79
2022-10-05T02:29:12.623Z,69.55
2022-10-05T02:32:11.183Z,69.37
2022-10-05T02:35:02.669Z,69.70
2022-10-05T02:38:08.233Z,69.50
2022-10-05T02:40:54.917Z,69.62
2022-10-05T02:43:50.458Z,69.36
2022-10-05T02:46:41.646Z,69.65
2022-10-05T02:49:34.601Z,69.50
2022-10-05T02:52:27.282Z,69.55
2022-10-05T02:55:18.572Z,69.77
2022-10-05T02:58:11.393Z,69.62
2022-10-05T03:01:00.322Z,69.67
2022-10-05T03:03:53.817Z,69.59
2022-10-05T03:06:43.486Z,69.61
2022-10-05T03:09:31.767Z,69.46
2022-10-05T03:12:23.431Z,69.43
2022-10-05T03:15:18.473Z,69.55
2022-10-05T03:18:19.083Z,69.45
2022-10-05T03:21:05.694Z,69.44
2022-10-05T03:24:07.937Z,69.71
2022-10-05T03:26:57.619Z,69.48
2022-10-05T03:29:47.520Z,69.78
2022-10-05T03:32:38.422Z,69.79
2022-10-05T03:35:28.236Z,69.58
2022-10-05T03:38:30.181Z,69.79
2022-10-05T03:41:18.034Z,69.67
2022-10-05T03:44:09.518Z,69.64
2022-10-05T03:47:07.940Z,69.59
2022-10-05T03:50:09.962Z,69.62
2022-10-05T03:52:57.847Z,69.82
2022-10-05T03:55:49.770Z,69.57
2022-10-05T03:58:41.257Z,69.57
2022-10-05T04:01:43.427Z,69.60
2022-10-05T04:04:49.830Z,69.75
2022-10-05T04:07:38.806Z,69.60
2022-10-05T04:10:26.423Z,69.68
2022-10-05T04:13:14.301Z,69.79
2022-10-05T04:16:02.914Z,69.80
2022-10-05T04:19:09.855Z,69.73
2022-10-05T04:21:58.591Z,69.59
2022-10-05T04:25:02.524Z,69.91
2022-10-05T04:27:51.989Z,69.52
2022-10-05T04:30:39.254Z,69.61
2022-10-05T04:33:25.885Z,69.54
2022-10-05T04:36:18.715Z,69.64
2022-10-05T04:39:16.793Z,69.79
2022-10-05T04:42:22.713Z,69.60
2022-10-05T04:45:41.829Z,69.76
2022-10-05T04:48:40.552Z,69.95
2022-10-05T04:51:27.254Z,70.13
2022-10-05T04:54:15.890Z,70.13
2022-10-05T04:57:03.560Z,69.72
2022-10-05T05:00:09.411Z,69.89
2022-10-05T05:03:05.200Z,70.01
2022-10-05T05:06:19.297Z,70.10
2022-10-05T05:09:26.277Z,69.90
2022-10-05T05:12:12.980Z,69.92
2022-10-05T05:15:02.624Z,70.06
2022-10-05T05:17:49.255Z,70.07
2022-10-05T05:21:02.002Z,70.20
2022-10-05T05:23:49.644Z,70.33
2022-10-05T05:26:56.541Z,70.56
2022-10-05T05:29:56.710Z,70.75
2022-10-05T05:33:02.323Z,70.95
2022-10-05T05:35:51.699Z,71.11
2022-10-05T05:38:39.811Z,70.96
2022-10-05T05:41:31.056Z,71.00
2022-10-05T05:44:24.398Z,70.89
2022-10-05T05:47:30.734Z,71.00
2022-10-05T05:50:24.277Z,70.50
2022-10-05T05:53:10.890Z,70.74
2022-10-05T05:56:01.483Z,70.73
2022-10-05T05:59:05.022Z,70.69
2022-10-05T06:01:52.649Z,70.67
2022-10-05T06:04:41.595Z,70.57
2022-10-05T06:07:30.820Z,70.33
2022-10-05T06:10:17.568Z,70.60
2022-10-05T06:13:11.338Z,70.49
2022-10-05T06:16:05.356Z,70.89
2022-10-05T06:18:56.577Z,70.46
2022-10-05T06:21:48.238Z,70.57
2022-10-05T06:24:36.506Z,70.63
2022-10-05T06:27:41.645Z,70.98
2022-10-05T06:30:46.936Z,70.82
2022-10-05T06:33:43.635Z,71.04
2022-10-05T06:36:30.269Z,71.28
2022-10-05T06:39:21.217Z,71.72
2022-10-05T06:42:23.056Z,72.45
2022-10-05T06:45:20.549Z,72.14
2022-10-05T06:48:18.717Z,72.30
2022-10-05T06:51:14.626Z,72.16
2022-10-05T06:54:08.409Z,72.66
2022-10-05T06:56:56.614Z,72.60
2022-10-05T06:59:46.513Z,72.66
2022-10-05T07:02:45.529Z,73.21
2022-10-05T07:05:38.363Z,73.22
2022-10-05T07:08:43.380Z,73.58
2022-10-05T07:11:37.618Z,73.65
2022-10-05T07:14:30.313Z,74.17
2022-10-05T07:17:20.121Z,74.20
2022-10-05T07:20:39.193Z,74.08
2022-10-05T07:23:52.399Z,74.23
2022-10-05T07:26:54.967Z,74.52
2022-10-05T07:29:47.743Z,74.79
2022-10-05T07:32:35.623Z,74.90
2022-10-05T07:35:41.153Z,74.85
2022-10-05T07:38:30.961Z,75.13
2022-10-05T07:41:20.098Z,75.38
2022-10-05T07:44:12.970Z,75.64
2022-10-05T07:47:23.067Z,75.88
2022-10-05T07:50:15.566Z,76.12
2022-10-05T07:53:05.606Z,76.07
2022-10-05T07:55:53.258Z,76.11
2022-10-05T07:58:47.248Z,76.14
2022-10-05T08:01:37.964Z,76.29
2022-10-05T08:04:28.205Z,76.10
2022-10-05T08:07:16.644Z,76.47
2022-10-05T08:10:23.294Z,76.34
2022-10-05T08:13:24.680Z,75.75
2022-10-05T08:16:12.638Z,76.50
2022-10-05T08:19:02.306Z,76.74
2022-10-05T08:21:52.592Z,76.43
2022-10-05T08:24:41.486Z,76.76
2022-10-05T08:27:28.140Z,76.79
2022-10-05T08:30:15.659Z,76.22
2022-10-05T08:33:13.184Z,76.31
2022-10-05T08:36:07.516Z,76.36
2022-10-05T08:38:55.167Z,76.00
2022-10-05T08:41:52.676Z,76.23
2022-10-05T08:44:47.300Z,76.27
2022-10-05T08:47:39.950Z,76.54
2022-10-05T08:50:40.794Z,76.10
2022-10-05T08:53:46.230Z,76.14
2022-10-05T08:56:38.503Z,75.78
2022-10-05T08:59:43.954Z,75.69
2022-10-05T09:02:49.683Z,75.85
2022-10-05T09:05:42.194Z,76.45
2022-10-05T09:08:35.683Z,76.30
2022-10-05T09:11:39.409Z,76.41
2022-10-05T09:14:32.204Z,75.36
2022-10-05T09:17:18.825Z,76.31
2022-10-05T09:20:05.454Z,76.28
2022-10-05T09:22:52.094Z,75.54
2022-10-05T09:25:42.228Z,75.64
2022-10-05T09:28:34.826Z,75.60
2022-10-05T09:31:25.512Z,75.79
2022-10-05T09:34:12.144Z,75.27
2022-10-05T09:37:13.628Z,75.51
2022-10-05T09:40:09.260Z,75.80
2022-10-05T09:43:02.513Z,75.82
2022-10-05T09:46:11.761Z,75.94
2022-10-05T09:49:01.516Z,75.30
2022-10-05T09:51:51.144Z,75.53
2022-10-05T09:54:58.379Z,75.13
2022-10-05T09:57:56.927Z,75.09
2022-10-05T10:01:09.705Z,74.93
2022-10-05T10:04:10.075Z,74.68
2022-10-05T10:07:09.031Z,74.74
2022-10-05T10:10:14.558Z,74.52
2022-10-05T10:13:16.521Z,74.58
2022-10-05T10:16:11.566Z,73.97
2022-10-05T10:19:01.653Z,74.11
2022-10-05T10:22:07.295Z,74.08
2022-10-05T10:25:19.188Z,74.23
2022-10-05T10:28:25.473Z,74.75
2022-10-05T10:31:26.363Z,74.46
2022-10-05T10:34:31.816Z,74.35
2022-10-05T10:37:39.340Z,74.13
2022-10-05T10:40:44.919Z,73.82
2022-10-05T10:43:34.570Z,74.24
2022-10-05T10:46:29.148Z,73.82
2022-10-05T10:49:25.146Z,73.92
2022-10-05T10:52:17.627Z,74.13
2022-10-05T10:55:09.339Z,73.79
2022-10-05T10:58:16.279Z,73.51
2022-10-05T11:01:17.199Z,73.71
2022-10-05T11:04:10.049Z,73.45
2022-10-05T11:07:15.224Z,73.82
2022-10-05T11:10:18.106Z,73.71
2022-10-05T11:13:17.046Z,73.46
2022-10-05T11:16:15.978Z,73.19
2022-10-05T11:19:20.298Z,74.48
2022-10-05T11:22:25.714Z,73.61
2022-10-05T11:25:18.338Z,73.25
2022-10-05T11:28:10.906Z,72.68
2022-10-05T11:31:00.625Z,72.75
2022-10-05T11:33:53.307Z,72.55
2022-10-05T11:36:52.234Z,71.70
2022-10-05T11:39:52.845Z,71.86
2022-10-05T11:42:45.697Z,72.23
2022-10-05T11:45:40.737Z,71.93
2022-10-05T11:48:27.404Z,72.35
2022-10-05T11:51:22.093Z,71.64
2022-10-05T11:54:17.786Z,71.86
2022-10-05T11:57:17.529Z,71.37
2022-10-05T12:00:08.841Z,71.00
2022-10-05T12:02:55.621Z,71.48
2022-10-05T12:06:00.671Z,71.20
2022-10-05T12:08:47.283Z,71.52
2022-10-05T12:11:40.034Z,71.35
2022-10-05T12:14:37.017Z,71.55
2022-10-05T12:17:26.818Z,71.57
2022-10-05T12:20:14.088Z,70.59
2022-10-05T12:23:19.619Z,70.90
2022-10-05T12:26:25.815Z,70.64
2022-10-05T12:29:13.158Z,69.92
2022-10-05T12:32:04.645Z,70.50
2022-10-05T12:35:11.576Z,70.30
2022-10-05T12:38:17.657Z,70.20
2022-10-05T12:41:04.436Z,70.56
2022-10-05T12:44:09.990Z,69.89
2022-10-05T12:47:01.228Z,70.34
2022-10-05T12:49:51.480Z,70.48
2022-10-05T12:52:57.019Z,70.67
2022-10-05T12:55:55.741Z,70.36
2022-10-05T12:58:48.403Z,70.61
2022-10-05T13:01:48.745Z,70.18
2022-10-05T13:04:35.434Z,70.29
2022-10-05T13:07:40.655Z,70.50
2022-10-05T13:10:35.263Z,69.93
2022-10-05T13:13:21.914Z,69.49
2022-10-05T13:16:08.574Z,69.22
2022-10-05T13:18:55.980Z,69.22
2022-10-05T13:21:57.675Z,68.85
2022-10-05T13:24:44.713Z,69.10
2022-10-05T13:27:32.329Z,68.85
2022-10-05T13:30:19.623Z,68.86
2022-10-05T13:33:17.950Z,68.49
2022-10-05T13:36:05.337Z,67.97
2022-10-05T13:38:57.104Z,68.00
2022-10-05T13:41:50.696Z,67.52
2022-10-05T13:44:50.911Z,67.52
2022-10-05T13:47:39.785Z,67.59
2022-10-05T13:50:32.765Z,67.39
2022-10-05T13:53:24.279Z,67.38
2022-10-05T13:56:13.774Z,67.54
2022-10-05T13:59:19.093Z,67.35
2022-10-05T14:02:07.692Z,67.45
2022-10-05T14:05:01.223Z,67.32
2022-10-05T14:07:49.295Z,66.98
2022-10-05T14:10:42.935Z,67.13
2022-10-05T14:13:46.579Z,66.96
2022-10-05T14:16:33.628Z,67.16
2022-10-05T14:19:40.582Z,67.00
2022-10-05T14:22:27.370Z,67.03
2022-10-05T14:25:17.131Z,66.99
2022-10-05T14:28:03.898Z,66.86
2022-10-05T14:31:00.225Z,66.93
2022-10-05T14:33:47.080Z,66.87
2022-10-05T14:36:35.551Z,66.84
2022-10-05T14:39:25.006Z,66.76
2022-10-05T14:42:13.894Z,66.88
2022-10-05T14:45:01.403Z,67.17
2022-10-05T14:47:52.159Z,67.03
2022-10-05T14:50:59.256Z,67.10
2022-10-05T14:53:47.821Z,67.15
2022-10-05T14:56:34.465Z,67.17
2022-10-05T14:59:35.520Z,67.18
2022-10-05T15:02:44.895Z,67.15
2022-10-05T15:05:31.709Z,67.46
2022-10-05T15:08:21.346Z,67.54
2022-10-05T15:11:17.849Z,67.40
2022-10-05T15:14:06.263Z,67.28
2022-10-05T15:16:53.957Z,67.37
2022-10-05T15:19:50.867Z,67.26
2022-10-05T15:22:41.281Z,67.14
2022-10-05T15:25:41.999Z,67.41
2022-10-05T15:28:41.438Z,67.47
2022-10-05T15:31:34.241Z,67.45
2022-10-05T15:34:22.427Z,67.44
2022-10-05T15:37:09.045Z,67.49
2022-10-05T15:39:56.555Z,67.42
2022-10-05T15:42:45.040Z,67.51
2022-10-05T15:45:37.394Z,67.55
2022-10-05T15:48:25.494Z,67.67
2022-10-05T15:51:27.427Z,67.72
2022-10-05T15:54:35.950Z,67.61
2022-10-05T15:57:30.268Z,67.68
2022-10-05T16:00:20.680Z,67.89
2022-10-05T16:03:09.498Z,67.90
2022-10-05T16:06:25.152Z,67.87
2022-10-05T16:09:18.019Z,68.06
2022-10-05T16:12:18.968Z,67.96
2022-10-05T16:15:16.180Z,67.83
2022-10-05T16:18:02.781Z,68.24
2022-10-05T16:21:10.758Z,68.28
2022-10-05T16:24:17.371Z,68.07
2022-10-05T16:27:07.114Z,68.27
2022-10-05T16:29:59.807Z,68.12
2022-10-05T16:32:50.167Z,68.30
2022-10-05T16:35:46.434Z,68.14
2022-10-05T16:38:36.041Z,68.27
2022-10-05T16:41:24.069Z,68.43
2022-10-05T16:44:10.713Z,68.67
2022-10-05T16:47:16.328Z,68.75
2022-10-05T16:50:04.145Z,68.82
2022-10-05T16:53:08.010Z,68.71
2022-10-05T16:55:55.887Z,68.72
2022-10-05T16:59:05.553Z,68.91
2022-10-05T17:01:56.887Z,68.94
2022-10-05T17:05:01.978Z,68.79
2022-10-05T17:07:54.936Z,68.94
2022-10-05T17:10:54.423Z,68.85
2022-10-05T17:13:41.883Z,68.75
2022-10-05T17:16:34.254Z,68.78
2022-10-05T17:19:33.442Z,68.94
2022-10-05T17:22:26.145Z,69.45
2022-10-05T17:25:22.288Z,69.08
2022-10-05T17:28:18.090Z,69.52
2022-10-05T17:31:11.637Z,69.14
2022-10-05T17:34:16.675Z,68.93
2022-10-05T17:37:15.708Z,69.08
2022-10-05T17:40:25.143Z,69.01
2022-10-05T17:43:15.542Z,69.24
2022-10-05T17:46:06.117Z,69.16
2022-10-05T17:48:54.614Z,69.36
2022-10-05T17:51:59.667Z,69.66
2022-10-05T17:55:05.059Z,69.69
2022-10-05T17:57:52.534Z,69.54
2022-10-05T18:00:43.787Z,69.48
2022-10-05T18:03:38.854Z,69.89
2022-10-05T18:06:25.478Z,69.42
2022-10-05T18:09:21.578Z,69.45
2022-10-05T18:12:11.044Z,69.49
2022-10-05T18:15:06.622Z,70.22
2022-10-05T18:17:58.627Z,70.00
2022-10-05T18:21:04.135Z,70.02
2022-10-05T18:23:58.686Z,69.97
2022-10-05T18:26:54.205Z,70.46
2022-10-05T18:30:02.633Z,70.55
2022-10-05T18:32:49.322Z,70.22
2022-10-05T18:35:54.930Z,70.35
2022-10-05T18:39:07.270Z,69.74
2022-10-05T18:42:08.162Z,70.45
2022-10-05T18:45:00.090Z,70.57
2022-10-05T18:47:58.889Z,70.55
2022-10-05T18:50:48.717Z,70.75
2022-10-05T18:53:38.508Z,70.60
2022-10-05T18:56:30.254Z,70.04
2022-10-05T18:59:27.140Z,70.83
2022-10-05T19:02:24.710Z,70.08
2022-10-05T19:05:46.921Z,70.44
2022-10-05T19:08:52.545Z,70.58
2022-10-05T19:11:43.049Z,70.82
2022-10-05T19:14:48.491Z,70.53
2022-10-05T19:17:56.038Z,70.50
2022-10-05T19:20:51.509Z,70.60
2022-10-05T19:23:47.635Z,70.81
2022-10-05T19:26:53.666Z,70.57
2022-10-05T19:29:51.758Z,70.69
2022-10-05T19:32:59.737Z,70.21
2022-10-05T19:35:58.820Z,70.44
2022-10-05T19:38:48.648Z,70.98
2022-10-05T19:41:43.810Z,70.47
2022-10-05T19:44:46.215Z,70.76
2022-10-05T19:47:48.832Z,71.04
2022-10-05T19:50:37.683Z,71.23
2022-10-05T19:53:25.514Z,71.44
2022-10-05T19:56:20.341Z,70.78
2022-10-05T19:59:13.086Z,70.94
2022-10-05T20:01:59.911Z,71.46
2022-10-05T20:04:52.336Z,71.58
2022-10-05T20:07:39.079Z,71.21
2022-10-05T20:10:29.000Z,71.81
2022-10-05T20:13:22.166Z,71.56
2022-10-05T20:16:36.892Z,71.17
2022-10-05T20:19:48.258Z,72.07
2022-10-05T20:22:35.834Z,71.23
2022-10-05T20:25:22.440Z,71.29
2022-10-05T20:28:09.175Z,72.27
2022-10-05T20:30:55.909Z,71.57
2022-10-05T20:33:42.601Z,71.87
2022-10-05T20:36:31.346Z,72.08
2022-10-05T20:39:18.254Z,72.28
2022-10-05T20:42:07.281Z,72.14
2022-10-05T20:44:56.817Z,71.91
2022-10-05T20:47:46.535Z,72.05
2022-10-05T20:50:33.196Z,72.49
2022-10-05T20:53:19.836Z,72.82
2022-10-05T20:56:06.503Z,72.30
2022-10-05T20:58:53.175Z,72.29
2022-10-05T21:01:40.496Z,72.46
2022-10-05T21:04:30.212Z,73.17
2022-10-05T21:07:22.215Z,72.29
2022-10-05T21:10:08.954Z,72.54
2022-10-05T21:12:55.589Z,72.60
2022-10-05T21:15:42.291Z,72.79
2022-10-05T21:18:29.420Z,73.15
2022-10-05T21:21:17.229Z,72.57
2022-10-05T21:24:04.374Z,73.12
2022-10-05T21:26:51.306Z,72.91
2022-10-05T21:29:40.933Z,72.99
2022-10-05T21:32:27.691Z,73.02
2022-10-05T21:35:14.808Z,72.68
2022-10-05T21:38:01.455Z,72.86
2022-10-05T21:40:48.182Z,72.97
2022-10-05T21:43:34.903Z,73.35
2022-10-05T21:46:22.224Z,73.33
2022-10-05T21:49:09.683Z,73.52
2022-10-05T21:51:56.584Z,73.40
2022-10-05T21:54:43.246Z,73.56
2022-10-05T21:57:29.928Z,73.18
2022-10-05T22:00:16.780Z,73.51
2022-10-05T22:03:04.045Z,73.62
2022-10-05T22:05:50.703Z,73.45
2022-10-05T22:08:37.424Z,73.24
2022-10-05T22:11:24.274Z,73.53
2022-10-05T22:14:11.259Z,73.67
2022-10-05T22:16:57.914Z,73.64
2022-10-05T22:19:44.602Z,73.33
2022-10-05T22:22:31.353Z,73.74
2022-10-05T22:25:18.214Z,73.78
2022-10-05T22:28:04.948Z,73.90
2022-10-05T22:30:51.646Z,74.04
2022-10-05T22:33:38.293Z,73.67
2022-10-05T22:36:24.939Z,73.85
2022-10-05T22:39:11.649Z,73.62
2022-10-05T22:41:58.467Z,73.67
2022-10-05T22:44:45.210Z,74.07
2022-10-05T22:47:31.876Z,73.79
2022-10-05T22:50:18.641Z,73.91
2022-10-05T22:53:05.324Z,74.00
2022-10-05T22:55:51.991Z,74.02
2022-10-05T22:58:38.904Z,74.33
2022-10-05T23:01:25.666Z,73.99
2022-10-05T23:04:12.320Z,74.37
2022-10-05T23:06:58.970Z,74.22
2022-10-05T23:09:45.686Z,73.93
2022-10-05T23:12:33.822Z,74.20
2022-10-05T23:15:20.505Z,74.15
2022-10-05T23:18:07.193Z,74.63
2022-10-05T23:20:54.590Z,74.15
2022-10-05T23:23:42.186Z,74.52
2022-10-05T23:26:28.947Z,74.39
2022-10-05T23:29:15.587Z,74.41
2022-10-05T23:32:05.268Z,74.36
2022-10-05T23:34:51.907Z,74.29
2022-10-05T23:37:42.468Z,74.44
2022-10-05T23:40:29.154Z,74.32
2022-10-05T23:43:15.904Z,74.65
2022-10-05T23:46:03.636Z,74.53
2022-10-05T23:48:50.402Z,74.48
2022-10-05T23:51:37.182Z,74.45
2022-10-05T23:54:23.824Z,74.46
2022-10-05T23:57:10.499Z,74.41
2022-10-05T23:59:57.309Z,74.35
